createdAt,value
2023-05-07T00:02:02.290Z,12.70
2023-05-07T00:04:29.601Z,12.70
2023-05-07T00:06:56.721Z,12.60
2023-05-07T00:09:23.494Z,12.70
2023-05-07T00:11:50.368Z,12.70
2023-05-07T00:14:17.176Z,12.70
2023-05-07T00:16:43.994Z,12.70
2023-05-07T00:19:10.803Z,12.70
2023-05-07T00:21:37.662Z,12.70
2023-05-07T00:24:04.916Z,12.70
2023-05-07T00:26:31.678Z,12.70
2023-05-07T00:28:58.470Z,12.70
2023-05-07T00:31:25.377Z,12.70
2023-05-07T00:33:52.175Z,12.70
2023-05-07T00:36:18.997Z,12.70
2023-05-07T00:38:45.733Z,12.70
2023-05-07T00:41:12.513Z,12.70
2023-05-07T00:43:39.340Z,12.70
2023-05-07T00:46:06.376Z,12.70
2023-05-07T00:48:33.715Z,12.60
2023-05-07T00:51:00.532Z,12.70
2023-05-07T00:53:27.602Z,12.60
2023-05-07T00:55:54.572Z,12.60
2023-05-07T00:58:22.334Z,12.70
2023-05-07T01:00:49.159Z,12.60
2023-05-07T01:03:16.041Z,12.60
2023-05-07T01:05:47.080Z,12.60
2023-05-07T01:08:16.051Z,12.60
2023-05-07T01:10:44.439Z,12.60
2023-05-07T01:13:13.181Z,12.60
2023-05-07T01:15:42.028Z,12.60
2023-05-07T01:18:08.870Z,12.60
2023-05-07T01:20:35.724Z,12.60
2023-05-07T01:23:04.603Z,12.60
2023-05-07T01:25:32.013Z,12.70
2023-05-07T01:28:00.439Z,12.60
2023-05-07T01:30:29.336Z,12.60
2023-05-07T01:33:11.061Z,12.60
2023-05-07T01:35:44.655Z,12.70
2023-05-07T01:38:12.804Z,12.70
2023-05-07T01:40:39.893Z,12.70
2023-05-07T01:43:07.467Z,12.70
2023-05-07T01:45:36.335Z,12.70
2023-05-07T01:48:04.805Z,12.70
2023-05-07T01:50:35.249Z,12.70
2023-05-07T01:53:04.186Z,12.80
2023-05-07T01:55:31.072Z,12.80
2023-05-07T01:57:57.810Z,12.80
2023-05-07T02:00:24.720Z,12.80
2023-05-07T02:02:51.619Z,12.80
2023-05-07T02:05:18.485Z,12.80
2023-05-07T02:07:45.284Z,12.80
2023-05-07T02:10:12.245Z,12.80
2023-05-07T02:12:39.195Z,12.80
2023-05-07T02:15:06.648Z,12.80
2023-05-07T02:17:34.026Z,12.80
2023-05-07T02:20:01.036Z,12.80
2023-05-07T02:22:27.781Z,12.80
2023-05-07T02:24:54.508Z,12.80
2023-05-07T02:27:21.260Z,12.80
2023-05-07T02:29:48.105Z,12.80
2023-05-07T02:32:14.863Z,12.80
2023-05-07T02:34:41.661Z,12.80
2023-05-07T02:37:08.416Z,12.90
2023-05-07T02:39:35.542Z,12.80
2023-05-07T02:42:02.672Z,12.80
2023-05-07T02:44:32.406Z,12.80
2023-05-07T02:46:59.174Z,12.80
2023-05-07T02:49:25.910Z,12.70
2023-05-07T02:51:52.678Z,12.80
2023-05-07T02:54:19.399Z,12.70
2023-05-07T02:56:46.169Z,12.70
2023-05-07T02:59:13.142Z,12.70
2023-05-07T03:01:39.999Z,12.70
2023-05-07T03:04:06.938Z,12.70
2023-05-07T03:06:33.741Z,12.70
2023-05-07T03:09:00.492Z,12.70
2023-05-07T03:11:27.314Z,12.70
2023-05-07T03:13:54.094Z,12.70
2023-05-07T03:16:21.021Z,12.70
2023-05-07T03:18:48.001Z,12.70
2023-05-07T03:21:14.818Z,12.70
2023-05-07T03:23:41.525Z,12.70
2023-05-07T03:26:08.271Z,12.70
2023-05-07T03:28:35.010Z,12.70
2023-05-07T03:31:02.021Z,12.80
2023-05-07T03:33:28.762Z,12.70
2023-05-07T03:35:55.647Z,12.70
2023-05-07T03:38:22.396Z,12.70
2023-05-07T03:40:49.168Z,12.60
2023-05-07T03:43:16.082Z,12.60
2023-05-07T03:45:43.446Z,12.60
2023-05-07T03:48:10.239Z,12.60
2023-05-07T03:50:37.112Z,12.50
2023-05-07T03:53:03.839Z,12.50
2023-05-07T03:57:57.742Z,12.50
2023-05-07T04:00:24.545Z,12.50
2023-05-07T04:02:51.494Z,12.50
2023-05-07T04:05:18.327Z,12.50
2023-05-07T04:07:45.441Z,12.50
2023-05-07T04:10:12.692Z,12.40
2023-05-07T04:12:39.643Z,12.40
2023-05-07T04:15:07.021Z,12.40
2023-05-07T04:17:33.775Z,12.40
2023-05-07T04:20:00.678Z,12.40
2023-05-07T04:22:27.728Z,12.50
2023-05-07T04:24:54.443Z,12.40
2023-05-07T04:27:21.462Z,12.40
2023-05-07T04:29:48.311Z,12.40
2023-05-07T04:32:15.570Z,12.50
2023-05-07T04:34:42.361Z,12.50
2023-05-07T04:37:09.553Z,12.40
2023-05-07T04:39:36.345Z,12.50
2023-05-07T04:42:03.967Z,12.50
2023-05-07T04:44:32.175Z,12.50
2023-05-07T04:46:59.000Z,12.50
2023-05-07T04:49:25.751Z,12.50
2023-05-07T04:51:52.524Z,12.60
2023-05-07T04:54:19.288Z,12.50
2023-05-07T04:56:46.328Z,12.60
2023-05-07T04:59:13.079Z,12.60
2023-05-07T05:01:39.831Z,12.60
2023-05-07T05:04:06.621Z,12.60
2023-05-07T05:06:33.522Z,12.60
2023-05-07T05:09:00.243Z,12.70
2023-05-07T05:11:27.173Z,10.80
2023-05-07T05:13:53.954Z,12.80
2023-05-07T05:16:20.764Z,12.90
2023-05-07T05:18:47.563Z,12.90
2023-05-07T05:21:14.285Z,13.00
2023-05-07T05:26:08.252Z,13.10
2023-05-07T05:28:35.024Z,13.10
2023-05-07T05:31:01.892Z,13.20
2023-05-07T05:33:28.685Z,13.10
2023-05-07T05:35:55.900Z,13.20
2023-05-07T05:38:22.680Z,13.20
2023-05-07T05:40:49.411Z,15.10
2023-05-07T05:43:16.156Z,13.30
2023-05-07T05:45:42.895Z,13.30
2023-05-07T05:48:09.765Z,13.30
2023-05-07T05:50:37.661Z,13.30
2023-05-07T05:53:04.435Z,13.30
2023-05-07T05:55:33.317Z,13.40
2023-05-07T05:58:04.490Z,13.40
2023-05-07T06:00:31.463Z,13.40
2023-05-07T06:02:58.239Z,13.40
2023-05-07T06:05:25.056Z,13.50
2023-05-07T06:07:51.873Z,13.50
2023-05-07T06:10:18.899Z,13.50
2023-05-07T06:12:45.874Z,13.50
2023-05-07T06:15:12.766Z,13.50
2023-05-07T06:17:39.483Z,13.50
2023-05-07T06:20:07.459Z,13.60
2023-05-07T06:22:34.339Z,13.60
2023-05-07T06:25:01.167Z,13.60
2023-05-07T06:27:29.015Z,13.70
2023-05-07T06:29:55.769Z,13.70
2023-05-07T06:32:22.619Z,13.70
2023-05-07T06:34:49.434Z,13.70
2023-05-07T06:37:16.222Z,13.70
2023-05-07T06:39:42.955Z,13.80
2023-05-07T06:42:09.769Z,13.80
2023-05-07T06:44:36.521Z,13.80
2023-05-07T06:47:03.274Z,13.90
2023-05-07T06:49:30.029Z,13.90
2023-05-07T06:54:24.529Z,14.00
2023-05-07T06:56:51.352Z,14.10
2023-05-07T06:59:18.099Z,14.10
2023-05-07T07:01:45.415Z,14.20
2023-05-07T07:04:12.252Z,14.40
2023-05-07T07:06:39.701Z,14.30
2023-05-07T07:09:06.488Z,14.40
2023-05-07T07:11:33.208Z,14.40
2023-05-07T07:14:00.223Z,14.50
2023-05-07T07:16:27.013Z,14.60
2023-05-07T07:18:53.781Z,14.60
2023-05-07T07:21:20.907Z,14.50
2023-05-07T07:23:47.681Z,14.60
2023-05-07T07:26:14.455Z,14.70
2023-05-07T07:28:46.285Z,14.70
2023-05-07T07:31:14.054Z,14.80
2023-05-07T07:33:40.881Z,14.80
2023-05-07T07:36:08.569Z,14.90
2023-05-07T07:38:35.930Z,14.90
2023-05-07T07:41:02.845Z,15.00
2023-05-07T07:43:29.639Z,15.00
2023-05-07T07:45:56.501Z,14.90
2023-05-07T07:48:23.357Z,15.00
2023-05-07T07:50:52.212Z,15.10
2023-05-07T07:53:19.502Z,15.80
2023-05-07T07:55:46.723Z,15.10
2023-05-07T07:58:13.668Z,15.10
2023-05-07T08:00:40.552Z,15.10
2023-05-07T08:03:10.508Z,15.00
2023-05-07T08:05:37.670Z,15.10
2023-05-07T08:08:04.826Z,15.10
2023-05-07T08:10:35.213Z,15.20
2023-05-07T08:13:05.370Z,15.30
2023-05-07T08:15:32.314Z,15.30
2023-05-07T08:18:01.132Z,16.20
2023-05-07T08:20:28.965Z,15.50
2023-05-07T08:22:55.857Z,15.50
2023-05-07T08:25:22.926Z,15.50
2023-05-07T08:27:49.813Z,15.60
2023-05-07T08:30:16.946Z,15.60
2023-05-07T08:32:43.703Z,15.70
2023-05-07T08:35:10.822Z,15.70
2023-05-07T08:40:06.734Z,15.90
2023-05-07T08:42:41.129Z,15.90
2023-05-07T08:45:12.081Z,16.10
2023-05-07T08:47:47.462Z,16.20
2023-05-07T08:50:14.824Z,16.20
2023-05-07T08:52:41.854Z,16.30
2023-05-07T08:55:10.200Z,16.50
2023-05-07T08:57:37.197Z,16.50
2023-05-07T09:00:07.482Z,16.60
2023-05-07T09:02:39.114Z,16.70
2023-05-07T09:05:06.585Z,16.80
2023-05-07T09:07:33.412Z,16.90
2023-05-07T09:10:06.474Z,17.00
2023-05-07T09:12:33.348Z,17.00
2023-05-07T09:15:00.692Z,17.10
2023-05-07T09:17:28.147Z,17.20
2023-05-07T09:19:55.032Z,17.20
2023-05-07T09:22:22.030Z,17.30
2023-05-07T09:24:52.741Z,17.30
2023-05-07T09:27:19.823Z,17.30
2023-05-07T09:29:46.604Z,17.20
2023-05-07T09:32:14.314Z,17.40
2023-05-07T09:34:42.639Z,17.40
2023-05-07T09:37:09.448Z,17.30
2023-05-07T09:39:47.425Z,17.40
2023-05-07T09:42:16.071Z,17.50
2023-05-07T09:44:45.415Z,17.50
2023-05-07T09:47:20.561Z,17.50
2023-05-07T09:49:49.367Z,17.50
2023-05-07T09:52:17.792Z,17.50
2023-05-07T09:54:48.205Z,17.50
2023-05-07T09:57:16.375Z,17.50
2023-05-07T09:59:44.829Z,17.50
2023-05-07T10:02:14.081Z,17.40
2023-05-07T10:04:41.501Z,17.60
2023-05-07T10:07:09.935Z,17.60
2023-05-07T10:09:39.500Z,17.70
2023-05-07T10:12:07.742Z,17.80
2023-05-07T10:14:35.275Z,17.80
2023-05-07T10:17:03.765Z,17.80
2023-05-07T10:19:31.882Z,17.90
2023-05-07T10:22:07.225Z,18.00
2023-05-07T10:24:36.304Z,18.00
2023-05-07T10:27:09.107Z,18.00
2023-05-07T10:29:56.249Z,18.10
2023-05-07T10:32:54.756Z,18.20
2023-05-07T10:35:31.287Z,18.20
2023-05-07T10:37:58.341Z,18.30
2023-05-07T10:40:25.433Z,18.40
2023-05-07T10:42:57.729Z,18.40
2023-05-07T10:45:25.668Z,18.40
2023-05-07T10:48:29.662Z,18.50
2023-05-07T10:51:33.834Z,18.50
2023-05-07T10:54:12.844Z,18.50
2023-05-07T10:56:43.957Z,18.50
2023-05-07T10:59:27.617Z,18.50
2023-05-07T11:02:11.990Z,18.60
2023-05-07T11:04:40.072Z,18.60
2023-05-07T11:07:10.204Z,18.70
2023-05-07T11:09:56.863Z,18.70
2023-05-07T11:12:39.344Z,18.70
2023-05-07T11:15:16.647Z,18.80
2023-05-07T11:18:00.920Z,18.80
2023-05-07T11:20:57.971Z,18.80
2023-05-07T11:23:36.750Z,18.90
2023-05-07T11:26:10.436Z,18.90
2023-05-07T11:28:42.779Z,19.00
2023-05-07T11:31:11.265Z,19.00
2023-05-07T11:33:39.250Z,19.00
2023-05-07T11:36:09.463Z,19.10
2023-05-07T11:38:38.324Z,19.10
2023-05-07T11:41:08.172Z,19.20
2023-05-07T11:43:37.120Z,19.20
2023-05-07T11:46:13.119Z,19.20
2023-05-07T11:48:40.257Z,19.20
2023-05-07T11:51:09.989Z,19.20
2023-05-07T11:53:45.262Z,19.10
2023-05-07T11:56:15.340Z,19.10
2023-05-07T11:58:44.450Z,19.00
2023-05-07T12:01:13.644Z,19.00
2023-05-07T12:03:48.368Z,19.00
2023-05-07T12:06:17.594Z,19.00
2023-05-07T12:08:48.208Z,19.00
2023-05-07T12:11:23.479Z,19.00
2023-05-07T12:13:50.282Z,19.00
2023-05-07T12:18:46.226Z,19.10
2023-05-07T12:21:13.239Z,19.10
2023-05-07T12:23:41.079Z,19.20
2023-05-07T12:26:08.052Z,19.30
2023-05-07T12:28:42.298Z,19.20
2023-05-07T12:31:09.611Z,19.30
2023-05-07T12:33:37.213Z,19.20
2023-05-07T12:36:08.295Z,18.50
2023-05-07T12:38:42.173Z,19.10
2023-05-07T12:41:11.700Z,19.20
2023-05-07T12:43:39.282Z,19.20
2023-05-07T12:46:09.336Z,19.10
2023-05-07T12:48:39.655Z,19.30
2023-05-07T12:51:08.569Z,19.40
2023-05-07T12:53:42.400Z,19.50
2023-05-07T12:56:09.398Z,19.50
2023-05-07T12:58:37.407Z,19.60
2023-05-07T13:01:10.675Z,19.60
2023-05-07T13:03:39.475Z,19.60
2023-05-07T13:06:13.693Z,19.60
2023-05-07T13:08:46.065Z,19.60
2023-05-07T13:11:13.884Z,19.60
2023-05-07T13:13:42.313Z,19.70
2023-05-07T13:16:12.033Z,19.70
2023-05-07T13:18:41.682Z,19.70
2023-05-07T13:21:08.762Z,19.80
2023-05-07T13:23:35.663Z,19.90
2023-05-07T13:26:08.592Z,19.70
2023-05-07T13:28:41.785Z,20.00
2023-05-07T13:31:08.515Z,20.00
2023-05-07T13:33:35.478Z,19.90
2023-05-07T13:36:05.594Z,20.00
2023-05-07T13:38:32.853Z,20.00
2023-05-07T13:40:59.567Z,20.10
2023-05-07T13:45:53.863Z,20.00
2023-05-07T13:48:20.789Z,20.00
2023-05-07T13:50:47.548Z,20.00
2023-05-07T13:53:14.586Z,20.00
2023-05-07T13:55:41.316Z,20.00
2023-05-07T13:58:08.065Z,20.00
2023-05-07T14:00:35.475Z,20.00
2023-05-07T14:03:03.174Z,20.00
2023-05-07T14:05:30.032Z,20.10
2023-05-07T14:07:59.041Z,20.00
2023-05-07T14:10:26.342Z,20.00
2023-05-07T14:12:53.825Z,20.00
2023-05-07T14:15:20.813Z,19.90
2023-05-07T14:17:47.931Z,19.80
2023-05-07T14:20:15.098Z,19.80
2023-05-07T14:22:42.270Z,19.70
2023-05-07T14:25:10.713Z,19.70
2023-05-07T14:27:37.720Z,19.60
2023-05-07T14:30:04.886Z,19.50
2023-05-07T14:32:33.154Z,19.50
2023-05-07T14:34:59.893Z,19.40
2023-05-07T14:37:26.642Z,19.40
2023-05-07T14:39:53.418Z,19.30
2023-05-07T14:42:20.348Z,19.30
2023-05-07T14:44:48.897Z,19.30
2023-05-07T14:47:17.629Z,19.30
2023-05-07T14:52:13.106Z,19.30
2023-05-07T14:54:39.959Z,19.30
2023-05-07T14:57:09.199Z,19.40
2023-05-07T14:59:36.210Z,19.50
2023-05-07T15:02:06.212Z,19.60
2023-05-07T15:04:34.017Z,19.70
2023-05-07T15:09:28.179Z,19.90
2023-05-07T15:11:54.927Z,20.10
2023-05-07T15:14:22.992Z,20.20
2023-05-07T15:16:50.223Z,20.30
2023-05-07T15:19:17.912Z,20.30
2023-05-07T15:21:44.916Z,20.30
2023-05-07T15:24:11.728Z,20.30
2023-05-07T15:26:38.473Z,20.30
2023-05-07T15:29:10.119Z,20.30
2023-05-07T15:31:38.868Z,20.20
2023-05-07T15:34:05.711Z,20.20
2023-05-07T15:36:32.511Z,20.20
2023-05-07T15:38:59.285Z,20.20
2023-05-07T15:41:26.289Z,20.20
2023-05-07T15:43:53.817Z,20.20
2023-05-07T15:46:25.280Z,20.10
2023-05-07T15:48:53.840Z,20.10
2023-05-07T15:51:21.238Z,20.00
2023-05-07T15:53:48.267Z,20.00
2023-05-07T15:56:15.459Z,19.90
2023-05-07T15:58:42.298Z,19.80
2023-05-07T16:01:09.168Z,19.80
2023-05-07T16:03:36.330Z,19.80
2023-05-07T16:06:03.346Z,19.70
2023-05-07T16:08:30.091Z,19.70
2023-05-07T16:10:56.848Z,19.80
2023-05-07T16:13:24.853Z,19.70
2023-05-07T16:15:58.393Z,19.80
2023-05-07T16:18:25.295Z,19.90
2023-05-07T16:20:52.535Z,20.00
2023-05-07T16:23:19.343Z,20.00
2023-05-07T16:25:46.549Z,20.10
2023-05-07T16:28:14.081Z,20.10
2023-05-07T16:30:40.963Z,20.00
2023-05-07T16:33:08.330Z,20.00
2023-05-07T16:35:35.109Z,20.00
2023-05-07T16:38:01.902Z,19.90
2023-05-07T16:40:28.722Z,19.80
2023-05-07T16:42:55.727Z,19.70
2023-05-07T16:45:23.303Z,19.60
2023-05-07T16:50:17.456Z,19.40
2023-05-07T16:52:44.732Z,19.30
2023-05-07T16:55:11.873Z,19.20
2023-05-07T16:57:38.961Z,19.10
2023-05-07T17:00:07.579Z,19.00
2023-05-07T17:02:37.163Z,18.90
2023-05-07T17:05:06.341Z,18.80
2023-05-07T17:07:33.240Z,18.80
2023-05-07T17:10:00.028Z,18.80
2023-05-07T17:12:26.947Z,18.80
2023-05-07T17:14:53.785Z,18.80
2023-05-07T17:17:20.570Z,18.90
2023-05-07T17:19:47.308Z,18.90
2023-05-07T17:22:14.056Z,18.90
2023-05-07T17:24:40.788Z,18.90
2023-05-07T17:27:07.864Z,18.80
2023-05-07T17:29:34.724Z,18.60
2023-05-07T17:32:01.619Z,18.70
2023-05-07T17:34:28.576Z,18.60
2023-05-07T17:36:56.139Z,18.60
2023-05-07T17:39:22.888Z,18.50
2023-05-07T17:41:49.610Z,17.80
2023-05-07T17:44:16.439Z,18.30
2023-05-07T17:46:43.211Z,18.30
2023-05-07T17:49:09.987Z,18.20
2023-05-07T17:51:52.753Z,18.10
2023-05-07T17:54:21.623Z,18.10
2023-05-07T17:56:48.455Z,18.00
2023-05-07T17:59:15.244Z,17.90
2023-05-07T18:01:42.192Z,17.90
2023-05-07T18:04:09.084Z,17.70
2023-05-07T18:06:36.134Z,17.80
2023-05-07T18:09:03.052Z,17.70
2023-05-07T18:11:32.294Z,17.70
2023-05-07T18:13:59.831Z,17.70
2023-05-07T18:16:26.750Z,17.60
2023-05-07T18:18:54.796Z,17.60
2023-05-07T18:21:21.748Z,17.60
2023-05-07T18:23:49.200Z,17.50
2023-05-07T18:26:16.437Z,17.50
2023-05-07T18:28:43.399Z,17.50
2023-05-07T18:31:10.960Z,17.40
2023-05-07T18:33:37.836Z,17.40
2023-05-07T18:36:05.004Z,17.40
2023-05-07T18:38:32.300Z,17.30
2023-05-07T18:41:05.227Z,17.30
2023-05-07T18:43:33.787Z,17.20
2023-05-07T18:46:01.265Z,17.20
2023-05-07T18:48:28.140Z,17.20
2023-05-07T18:50:54.971Z,17.10
2023-05-07T18:53:21.705Z,17.00
2023-05-07T18:55:52.745Z,17.00
2023-05-07T18:58:20.113Z,16.90
2023-05-07T19:00:50.372Z,16.80
2023-05-07T19:03:17.573Z,16.80
2023-05-07T19:05:45.303Z,16.80
2023-05-07T19:08:12.343Z,16.70
2023-05-07T19:10:39.522Z,16.70
2023-05-07T19:13:06.681Z,17.50
2023-05-07T19:15:33.792Z,16.60
2023-05-07T19:18:00.764Z,16.30
2023-05-07T19:20:28.694Z,16.40
2023-05-07T19:22:55.949Z,16.40
2023-05-07T19:25:22.799Z,16.30
2023-05-07T19:27:50.833Z,16.30
2023-05-07T19:30:18.214Z,16.20
2023-05-07T19:32:45.166Z,16.20
2023-05-07T19:35:12.229Z,16.10
2023-05-07T19:37:39.583Z,16.20
2023-05-07T19:40:08.721Z,16.10
2023-05-07T19:42:36.186Z,16.10
2023-05-07T19:45:05.055Z,16.70
2023-05-07T19:47:32.052Z,16.00
2023-05-07T19:49:58.862Z,15.90
2023-05-07T19:52:26.338Z,15.90
2023-05-07T19:54:53.272Z,15.80
2023-05-07T19:57:19.988Z,15.80
2023-05-07T19:59:47.310Z,15.80
2023-05-07T20:02:15.236Z,15.80
2023-05-07T20:04:42.285Z,15.70
2023-05-07T20:07:09.113Z,15.70
2023-05-07T20:09:36.503Z,15.70
2023-05-07T20:12:03.470Z,15.60
2023-05-07T20:14:30.410Z,15.50
2023-05-07T20:16:57.153Z,15.50
2023-05-07T20:19:23.877Z,15.50
2023-05-07T20:21:50.635Z,15.20
2023-05-07T20:24:19.248Z,15.40
2023-05-07T20:26:46.742Z,15.40
2023-05-07T20:29:13.565Z,15.30
2023-05-07T20:31:40.922Z,15.30
2023-05-07T20:34:08.051Z,15.20
2023-05-07T20:36:35.922Z,15.20
2023-05-07T20:39:02.952Z,15.10
2023-05-07T20:41:29.917Z,15.10
2023-05-07T20:43:57.166Z,15.10
2023-05-07T20:46:25.211Z,15.00
2023-05-07T20:48:52.523Z,14.90
2023-05-07T20:51:19.334Z,15.00
2023-05-07T20:53:47.776Z,14.90
2023-05-07T20:56:15.530Z,14.80
2023-05-07T20:58:42.268Z,14.80
2023-05-07T21:01:09.086Z,14.70
2023-05-07T21:03:35.926Z,14.70
2023-05-07T21:06:04.056Z,14.70
2023-05-07T21:10:58.787Z,14.60
2023-05-07T21:13:25.697Z,14.50
2023-05-07T21:15:53.507Z,14.40
2023-05-07T21:18:20.757Z,14.40
2023-05-07T21:20:47.753Z,14.40
2023-05-07T21:23:14.496Z,14.30
2023-05-07T21:25:41.490Z,14.20
2023-05-07T21:28:09.043Z,14.20
2023-05-07T21:30:36.983Z,14.20
2023-05-07T21:33:07.661Z,14.10
2023-05-07T21:35:36.423Z,14.10
2023-05-07T21:38:03.578Z,14.00
2023-05-07T21:40:30.511Z,14.00
2023-05-07T21:42:58.769Z,14.00
2023-05-07T21:45:25.520Z,13.90
2023-05-07T21:47:52.401Z,14.00
2023-05-07T21:50:19.626Z,13.80
2023-05-07T21:52:46.800Z,13.80
2023-05-07T21:55:13.855Z,13.80
2023-05-07T21:57:45.536Z,13.70
2023-05-07T22:00:16.328Z,13.70
2023-05-07T22:02:43.176Z,13.70
2023-05-07T22:05:10.072Z,13.60
2023-05-07T22:07:36.840Z,13.60
2023-05-07T22:10:03.842Z,13.50
2023-05-07T22:12:30.636Z,13.50
2023-05-07T22:14:57.666Z,13.50
2023-05-07T22:17:24.617Z,13.50
2023-05-07T22:19:51.845Z,13.40
2023-05-07T22:22:19.228Z,13.40
2023-05-07T22:24:46.522Z,13.40
2023-05-07T22:27:13.594Z,13.30
2023-05-07T22:29:40.768Z,13.30
2023-05-07T22:32:08.351Z,13.30
2023-05-07T22:34:36.597Z,13.30
2023-05-07T22:37:03.368Z,13.30
2023-05-07T22:39:34.353Z,13.20
2023-05-07T22:42:02.325Z,13.10
2023-05-07T22:44:29.464Z,13.20
2023-05-07T22:46:56.237Z,13.10
2023-05-07T22:49:23.041Z,13.10
2023-05-07T22:51:49.799Z,13.10
2023-05-07T22:54:16.551Z,13.00
2023-05-07T22:56:43.332Z,13.00
2023-05-07T22:59:10.063Z,12.90
2023-05-07T23:01:37.084Z,12.80
2023-05-07T23:04:03.893Z,12.90
2023-05-07T23:06:31.161Z,12.90
2023-05-07T23:08:58.913Z,12.90
2023-05-07T23:11:26.340Z,12.80
2023-05-07T23:13:53.220Z,12.80
2023-05-07T23:16:20.346Z,12.60
2023-05-07T23:18:47.818Z,12.70
2023-05-07T23:21:14.684Z,12.70
2023-05-07T23:23:41.486Z,12.60
2023-05-07T23:26:08.582Z,12.60
2023-05-07T23:28:35.339Z,12.60
2023-05-07T23:31:02.379Z,12.50
2023-05-07T23:33:29.192Z,12.50
2023-05-07T23:36:04.749Z,12.50
2023-05-07T23:38:31.878Z,12.40
2023-05-07T23:40:58.876Z,12.40
2023-05-07T23:43:25.977Z,12.40
2023-05-07T23:45:52.881Z,12.20
2023-05-07T23:48:19.618Z,12.30
2023-05-07T23:50:46.530Z,12.30
2023-05-07T23:53:13.269Z,12.20
2023-05-07T23:55:40.002Z,12.20
2023-05-07T23:58:06.802Z,12.20
